Startpagina
METAR-TAF:

METAR-TAF

Vliegvelden :

Luchthaven Łódź-Lublinek

Łódź, Polen

breedte: 51-43-19N, lengte: 019-23-53E, hoogte: 184 m

Actueel weer

Dit bericht is 18 minuten geleden gemaakt, om 19:30 UTC
Wind 5 kt uit het oosten
Temperatuur 12°C
Vochtigheid 76%
Druk 1021 hPa
Zicht 10 km of meer
geen wolken onder 1500 m en geen cumulonimbus

METAR: EPLL 151930Z 09005KT CAVOK 12/08 Q1021

Tijdstip: 21:48 (19:48 UTC)

Verwachting

Dit bericht is 2 uur en het 18 minuten geleden gemaakt, om 17:30 UTC
Verwachting geldig van 15 om 18 UTC tot 16 om 18 UTC
Wind 5 kt uit het oostzuidoosten
Zicht 10 km of meer
geen wolken onder 1500 m en geen cumulonimbus

TAF: EPLL 151730Z 1518/1618 12005KT CAVOK

Waarnemingen en weersverwachtingen van meer dan 4000 vliegvelden (METAR en TAF).

De beschikbare stations zijn de gele en rode punten op de kaart.

Ga met uw muis naar het station om de naam te zien.

Klik dan om waarnemingen en weersverwachtingen te zien.

kaart wijzigen: klik op de groene knoppen met een zwart kruis om in te zoomen, op de groene knop met een streepje om uit te zoomen of op de groene pijlen voor aangrenzende kaarten.


METAR-TAF: